AirportContent of METAR report
LYBEMETAR LYBE 291230Z 14009KT CAVOK 10/M01 Q1009 NOSIG=
LYBTMETAR LYBT 291230Z 09009KT 060V130 CAVOK 09/M01 Q1009 NOSIG=
LYKVMETAR LYKV 291230Z 14004KT 110V180 CAVOK 08/08 Q1010 NOSIG=
LYNIMETAR LYNI 291230Z 11004KT 080V160 9999 SCT020 06/01 Q1011 NOSIG=
LYVRMETAR LYVR 291230Z 08004KT 040V140 9999 FEW016 BKN033 06/02 Q1010 NOSIG=
LYUZMETAR LYUZ 291230Z 24004KT 200V270 9999 SCT012 02/M00 Q1008=
LYPGMETAR LYPG 291230Z VRB02KT 9999 SCT030 BKN080 13/10 Q1010 NOSIG=
LYTVMETAR LYTV 291200Z 22003KT 110V280 9999 FEW023 SCT033 15/10 Q1010 NOSIG=

Data loaded: 2020-01-29 12:51:40 UTC

METAR, TAF, AIRMET, GAMET, SIGMET

Important note: MET information on these web pages are informative and restricted to aeronautical users, must not be used for any commercial purpose, and do not replace flight documentation.